This is the latest recevied weather packets stored in our database for station/object LU5DTF-WX. If no packets are shown the sender has not sent any weather packets the latest 10 day(s).
| Time | Temp. | Humidity | Pressure | Rain* | Wind** | Luminosity | Snow |
|---|---|---|---|---|---|---|---|
| 1787931003 | 13.89° C | 74% | 1009.9 hPa | 0 mm | - | - | - |
| 1787930703 | 14.44° C | 69% | 1010 hPa | 0 mm | - | - | - |
| 1787930403 | 14.44° C | 69% | 1010 hPa | 0 mm | - | - | - |
| 1787930103 | 16.11° C | 62% | 1010 hPa | 0 mm | - | - | - |
| 1787929803 | 16.67° C | 58% | 1009.9 hPa | 0 mm | - | - | - |
| 1787929503 | 16.67° C | 57% | 1010 hPa | 0 mm | - | - | - |
| 1787929203 | 16.67° C | 57% | 1010.1 hPa | 0 mm | - | - | - |
| 1787928903 | 16.11° C | 56% | 1010 hPa | 0 mm | - | - | - |
| 1787928603 | 16.11° C | 57% | 1010.1 hPa | 0 mm | - | - | - |
| 1787928303 | 16.11° C | 58% | 1010.1 hPa | 0 mm | - | - | - |
| 1787928003 | 16.11° C | 57% | 1010.2 hPa | 0 mm | - | - | - |
| 1787927703 | 15.56° C | 61% | 1010.2 hPa | 0 mm | - | - | - |
| 1787927406 | 15.56° C | 61% | 1010.3 hPa | 0 mm | - | - | - |
| 1787927103 | 15.56° C | 59% | 1010.4 hPa | 0 mm | - | - | - |
| 1787926803 | 15.56° C | 61% | 1010.6 hPa | 0 mm | - | - | - |
| 1787926503 | 15.56° C | 61% | 1010.5 hPa | 0 mm | - | - | - |
| 1787926203 | 15.56° C | 63% | 1010.5 hPa | 0 mm | - | - | - |
| 1787925903 | 15.56° C | 63% | 1010.4 hPa | 0 mm | - | - | - |
| 1787925603 | 15° C | 63% | 1010.4 hPa | 0 mm | - | - | - |
| 1787925306 | 15° C | 63% | 1010.3 hPa | 0 mm | - | - | - |
| 1787925003 | 15° C | 65% | 1010.1 hPa | 0 mm | - | - | - |
| 1787924703 | 15° C | 65% | 1010.2 hPa | 0 mm | - | - | - |
| 1787924403 | 15° C | 64% | 1010.1 hPa | 0 mm | - | - | - |
| 1787924103 | 14.44° C | 64% | 1010 hPa | 0 mm | - | - | - |
| 1787923803 | 14.44° C | 64% | 1010.1 hPa | 0 mm | - | - | - |
* Rain latest hour (hover to see other rain measurements)
** Current wind speed in m/s (hover to see current wind gust speed)